Time,TemperatureF,DewpointF,PressureIn,WindDirection,WindDirectionDegrees,WindSpeedMPH,WindSpeedGustMPH,Humidity,HourlyPrecipIn,Conditions,Clouds,dailyrainin,SolarRadiationWatts/m^2,SoftwareType,DateUTC
2013-03-11 00:00:00,33.3,31.5,30.30,SSE,163,0.0,0.0,93,0.00,,,0.00,0,Wunderground v.1.15,2013-03-11 04:00:00,
2013-03-11 00:02:00,33.3,31.5,30.30,SSE,163,0.0,0.0,93,0.00,,,0.00,0,Wunderground v.1.15,2013-03-11 04:02:00,
2013-03-11 00:06:00,33.3,31.5,30.30,SSE,163,0.0,0.0,93,0.00,,,0.00,0,Wunderground v.1.15,2013-03-11 04:06:00,
2013-03-11 00:10:00,33.3,31.5,30.30,SSE,163,0.0,0.0,93,0.00,,,0.00,0,Wunderground v.1.15,2013-03-11 04:10:00,
2013-03-11 00:16:00,33.9,32.4,30.30,SSE,163,0.0,0.0,94,0.00,,,0.00,0,Wunderground v.1.15,2013-03-11 04:16:00,
2013-03-11 00:22:00,34.3,32.8,30.30,SSE,163,0.0,0.0,94,0.00,,,0.00,0,Wunderground v.1.15,2013-03-11 04:22:00,
2013-03-11 00:28:00,34.6,33.1,30.30,SSE,163,0.0,0.0,94,0.00,,,0.00,0,Wunderground v.1.15,2013-03-11 04:28:00,
2013-03-11 00:34:00,34.7,33.2,30.29,SSE,163,0.0,0.0,94,0.00,,,0.00,0,Wunderground v.1.15,2013-03-11 04:34:00,
2013-03-11 00:40:00,34.7,33.2,30.29,SSE,163,0.0,0.0,94,0.00,,,0.00,0,Wunderground v.1.15,2013-03-11 04:40:00,
2013-03-11 00:46:00,34.7,33.2,30.29,SSE,163,0.0,0.0,94,0.00,,,0.00,0,Wunderground v.1.15,2013-03-11 04:46:00,
2013-03-11 00:52:00,34.9,33.3,30.29,SSE,163,0.0,0.0,94,0.00,,,0.00,0,Wunderground v.1.15,2013-03-11 04:52:00,
2013-03-11 00:58:00,34.9,33.3,30.28,SSE,163,0.0,0.0,94,0.00,,,0.00,0,Wunderground v.1.15,2013-03-11 04:58:00,
2013-03-11 01:04:00,34.9,33.3,30.28,SSE,163,0.0,0.0,94,0.00,,,0.00,0,Wunderground v.1.15,2013-03-11 05:04:00,
2013-03-11 01:10:00,35.0,33.4,30.27,SSE,163,0.0,0.0,94,0.00,,,0.00,0,Wunderground v.1.15,2013-03-11 05:10:00,
2013-03-11 01:18:00,35.1,33.8,30.27,SSE,163,0.0,0.0,95,0.00,,,0.00,0,Wunderground v.1.15,2013-03-11 05:18:00,
2013-03-11 01:24:00,35.4,34.1,30.27,SSE,163,0.0,0.0,95,0.00,,,0.00,0,Wunderground v.1.15,2013-03-11 05:24:00,
2013-03-11 01:30:00,35.7,34.4,30.26,SSE,163,0.0,1.0,95,0.00,,,0.00,0,Wunderground v.1.15,2013-03-11 05:30:00,
2013-03-11 01:36:00,36.1,34.8,30.27,SSE,163,0.0,1.0,95,0.00,,,0.00,0,Wunderground v.1.15,2013-03-11 05:36:00,
2013-03-11 01:42:00,36.4,35.1,30.27,SSE,163,0.0,0.0,95,0.00,,,0.00,0,Wunderground v.1.15,2013-03-11 05:42:00,
2013-03-11 01:48:00,36.7,35.4,30.27,SSE,163,0.0,0.0,95,0.00,,,0.00,0,Wunderground v.1.15,2013-03-11 05:48:00,
2013-03-11 01:54:00,36.9,35.6,30.27,SSE,163,0.0,0.0,95,0.00,,,0.00,0,Wunderground v.1.15,2013-03-11 05:54:00,
2013-03-11 02:00:00,36.9,35.6,30.27,SSE,163,0.0,0.0,95,0.00,,,0.00,0,Wunderground v.1.15,2013-03-11 06:00:00,
2013-03-11 02:06:00,36.9,35.6,30.27,SSE,163,0.0,0.0,95,0.00,,,0.00,0,Wunderground v.1.15,2013-03-11 06:06:00,
2013-03-11 02:12:00,36.9,35.6,30.27,SSE,163,0.0,0.0,95,0.00,,,0.00,0,Wunderground v.1.15,2013-03-11 06:12:00,
2013-03-11 02:18:00,36.9,35.6,30.27,SSE,163,0.0,0.0,95,0.00,,,0.00,0,Wunderground v.1.15,2013-03-11 06:18:00,
2013-03-11 02:24:00,37.0,35.7,30.27,SSE,163,0.0,0.0,95,0.00,,,0.00,0,Wunderground v.1.15,2013-03-11 06:24:00,
2013-03-11 02:30:00,37.1,35.8,30.27,SSE,163,0.0,0.0,95,0.00,,,0.00,0,Wunderground v.1.15,2013-03-11 06:30:00,
2013-03-11 02:38:00,36.9,35.6,30.26,SSE,163,0.0,0.0,95,0.00,,,0.00,0,Wunderground v.1.15,2013-03-11 06:38:00,
2013-03-11 02:44:00,36.7,35.4,30.26,SSE,163,0.0,0.0,95,0.00,,,0.00,0,Wunderground v.1.15,2013-03-11 06:44:00,
2013-03-11 02:50:00,36.5,35.2,30.26,SSE,163,0.0,0.0,95,0.00,,,0.00,0,Wunderground v.1.15,2013-03-11 06:50:00,
2013-03-11 02:56:00,36.4,35.1,30.26,SSE,163,0.0,0.0,95,0.00,,,0.00,0,Wunderground v.1.15,2013-03-11 06:56:00,
2013-03-11 03:02:00,36.3,35.0,30.25,SSE,163,0.0,0.0,95,0.00,,,0.00,0,Wunderground v.1.15,2013-03-11 07:02:00,
2013-03-11 03:08:00,36.3,35.0,30.26,SSE,163,0.0,0.0,95,0.00,,,0.00,0,Wunderground v.1.15,2013-03-11 07:08:00,
2013-03-11 03:14:00,36.2,34.9,30.25,SSE,163,0.0,0.0,95,0.00,,,0.00,0,Wunderground v.1.15,2013-03-11 07:14:00,
2013-03-11 03:20:00,36.1,34.8,30.25,SSE,163,0.0,0.0,95,0.00,,,0.00,0,Wunderground v.1.15,2013-03-11 07:20:00,
2013-03-11 03:26:00,35.8,34.5,30.25,SSE,163,0.0,0.0,95,0.00,,,0.00,0,Wunderground v.1.15,2013-03-11 07:26:00,
2013-03-11 03:32:00,35.4,34.1,30.25,SSE,163,0.0,0.0,95,0.00,,,0.00,0,Wunderground v.1.15,2013-03-11 07:32:00,
2013-03-11 03:38:00,35.2,33.9,30.25,SSE,163,0.0,0.0,95,0.00,,,0.00,0,Wunderground v.1.15,2013-03-11 07:38:00,
2013-03-11 03:44:00,35.0,33.7,30.24,SSE,163,0.0,0.0,95,0.00,,,0.00,0,Wunderground v.1.15,2013-03-11 07:44:00,
2013-03-11 03:50:00,35.0,33.7,30.24,SSE,163,0.0,0.0,95,0.00,,,0.00,0,Wunderground v.1.15,2013-03-11 07:50:00,
2013-03-11 03:58:00,34.9,33.6,30.23,SSE,163,0.0,0.0,95,0.00,,,0.00,0,Wunderground v.1.15,2013-03-11 07:58:00,
2013-03-11 04:04:00,34.9,33.6,30.23,SSE,163,0.0,0.0,95,0.00,,,0.00,0,Wunderground v.1.15,2013-03-11 08:04:00,
2013-03-11 04:10:00,34.9,33.6,30.23,SSE,163,0.0,0.0,95,0.00,,,0.00,0,Wunderground v.1.15,2013-03-11 08:10:00,
2013-03-11 04:18:00,34.6,33.3,30.23,SSE,163,0.0,0.0,95,0.00,,,0.00,0,Wunderground v.1.15,2013-03-11 08:18:00,
2013-03-11 04:24:00,34.4,33.1,30.23,SSE,163,0.0,0.0,95,0.00,,,0.00,0,Wunderground v.1.15,2013-03-11 08:24:00,
2013-03-11 04:30:00,34.2,32.9,30.24,SSE,163,0.0,0.0,95,0.00,,,0.00,0,Wunderground v.1.15,2013-03-11 08:30:00,
2013-03-11 04:36:00,34.1,32.8,30.23,SSE,163,0.0,0.0,95,0.00,,,0.00,0,Wunderground v.1.15,2013-03-11 08:36:00,
2013-03-11 04:42:00,34.0,32.7,30.23,SSE,163,0.0,0.0,95,0.00,,,0.00,0,Wunderground v.1.15,2013-03-11 08:42:00,
2013-03-11 04:48:00,33.9,32.6,30.23,SSE,163,0.0,0.0,95,0.00,,,0.00,0,Wunderground v.1.15,2013-03-11 08:48:00,
2013-03-11 04:54:00,33.8,32.5,30.23,SSE,163,0.0,0.0,95,0.00,,,0.00,0,Wunderground v.1.15,2013-03-11 08:54:00,
2013-03-11 05:00:00,33.7,32.4,30.23,SSE,163,0.0,0.0,95,0.00,,,0.00,0,Wunderground v.1.15,2013-03-11 09:00:00,
2013-03-11 05:06:00,33.6,32.3,30.24,SSE,163,0.0,0.0,95,0.00,,,0.00,0,Wunderground v.1.15,2013-03-11 09:06:00,
2013-03-11 05:12:00,33.4,32.1,30.23,SSE,163,0.0,0.0,95,0.00,,,0.00,0,Wunderground v.1.15,2013-03-11 09:12:00,
2013-03-11 05:18:00,33.3,32.0,30.23,SSE,163,0.0,0.0,95,0.00,,,0.00,0,Wunderground v.1.15,2013-03-11 09:18:00,
2013-03-11 05:24:00,33.1,31.8,30.23,SSE,163,0.0,0.0,95,0.00,,,0.00,0,Wunderground v.1.15,2013-03-11 09:24:00,
2013-03-11 05:30:00,33.1,31.8,30.23,SSE,163,0.0,0.0,95,0.00,,,0.00,0,Wunderground v.1.15,2013-03-11 09:30:00,
2013-03-11 05:36:00,32.9,31.6,30.23,SSE,163,0.0,0.0,95,0.00,,,0.00,0,Wunderground v.1.15,2013-03-11 09:36:00,
2013-03-11 05:42:00,32.8,31.5,30.22,SSE,163,0.0,0.0,95,0.00,,,0.00,0,Wunderground v.1.15,2013-03-11 09:42:00,
2013-03-11 05:48:00,32.8,31.5,30.22,SSE,163,0.0,0.0,95,0.00,,,0.00,0,Wunderground v.1.15,2013-03-11 09:48:00,
2013-03-11 05:54:00,32.8,31.5,30.22,SSE,163,0.0,0.0,95,0.00,,,0.00,0,Wunderground v.1.15,2013-03-11 09:54:00,
2013-03-11 06:00:00,32.9,31.9,30.22,SSE,163,0.0,0.0,96,0.00,,,0.00,0,Wunderground v.1.15,2013-03-11 10:00:00,
2013-03-11 06:08:00,33.1,32.1,30.22,SSE,163,0.0,0.0,96,0.00,,,0.00,0,Wunderground v.1.15,2013-03-11 10:08:00,
2013-03-11 06:14:00,33.3,32.3,30.22,SSE,163,0.0,0.0,96,0.00,,,0.00,0,Wunderground v.1.15,2013-03-11 10:14:00,
2013-03-11 06:20:00,33.6,32.6,30.22,SSE,163,0.0,0.0,96,0.00,,,0.00,0,Wunderground v.1.15,2013-03-11 10:20:00,
2013-03-11 06:26:00,33.7,32.7,30.22,SSE,163,0.0,0.0,96,0.00,,,0.00,0,Wunderground v.1.15,2013-03-11 10:26:00,
2013-03-11 06:32:00,33.8,32.8,30.22,SSE,163,0.0,0.0,96,0.00,,,0.00,0,Wunderground v.1.15,2013-03-11 10:32:00,
2013-03-11 06:38:00,33.8,32.8,30.22,SSE,163,0.0,0.0,96,0.00,,,0.00,0,Wunderground v.1.15,2013-03-11 10:38:00,
2013-03-11 06:44:00,34.1,33.1,30.22,SSE,163,0.0,0.0,96,0.00,,,0.00,0,Wunderground v.1.15,2013-03-11 10:44:00,
2013-03-11 06:50:00,34.3,33.3,30.22,SSE,163,0.0,0.0,96,0.00,,,0.00,0,Wunderground v.1.15,2013-03-11 10:50:00,
2013-03-11 06:56:00,34.3,33.3,30.21,SSE,163,0.0,0.0,96,0.00,,,0.00,0,Wunderground v.1.15,2013-03-11 10:56:00,
2013-03-11 07:02:00,34.2,33.2,30.21,SSE,163,0.0,0.0,96,0.00,,,0.00,0,Wunderground v.1.15,2013-03-11 11:02:00,
2013-03-11 07:08:00,34.1,33.1,30.22,SSE,163,0.0,0.0,96,0.00,,,0.00,0,Wunderground v.1.15,2013-03-11 11:08:00,
2013-03-11 07:14:00,33.8,32.8,30.22,SSE,163,0.0,0.0,96,0.00,,,0.00,0,Wunderground v.1.15,2013-03-11 11:14:00,
2013-03-11 07:20:00,33.8,32.8,30.22,SSE,163,0.0,0.0,96,0.00,,,0.00,11,Wunderground v.1.15,2013-03-11 11:20:00,
2013-03-11 07:26:00,33.8,32.8,30.22,SSE,163,0.0,0.0,96,0.00,,,0.00,19,Wunderground v.1.15,2013-03-11 11:26:00,
2013-03-11 07:32:00,33.9,32.9,30.22,SSE,163,0.0,0.0,96,0.00,,,0.00,28,Wunderground v.1.15,2013-03-11 11:32:00,
2013-03-11 07:38:00,33.9,32.9,30.22,SSE,163,0.0,0.0,96,0.00,,,0.00,33,Wunderground v.1.15,2013-03-11 11:38:00,
2013-03-11 07:44:00,34.0,33.0,30.22,SSE,163,0.0,0.0,96,0.00,,,0.00,44,Wunderground v.1.15,2013-03-11 11:44:00,
2013-03-11 07:50:00,34.0,33.0,30.22,SSE,163,0.0,0.0,96,0.00,,,0.00,51,Wunderground v.1.15,2013-03-11 11:50:00,
2013-03-11 07:56:00,34.1,33.1,30.22,SSE,163,0.0,0.0,96,0.00,,,0.00,58,Wunderground v.1.15,2013-03-11 11:56:00,
2013-03-11 08:02:00,34.1,33.1,30.22,SSE,163,0.0,0.0,96,0.00,,,0.00,65,Wunderground v.1.15,2013-03-11 12:02:00,
2013-03-11 08:08:00,34.2,33.2,30.22,SSE,163,0.0,0.0,96,0.00,,,0.00,69,Wunderground v.1.15,2013-03-11 12:08:00,
2013-03-11 08:14:00,34.5,33.5,30.23,SSE,163,0.0,0.0,96,0.00,,,0.00,74,Wunderground v.1.15,2013-03-11 12:14:00,
2013-03-11 08:20:00,34.9,33.9,30.23,SSE,163,0.0,0.0,96,0.00,,,0.00,67,Wunderground v.1.15,2013-03-11 12:20:00,
2013-03-11 08:26:00,35.4,34.6,30.23,SSE,163,0.0,0.0,97,0.00,,,0.00,60,Wunderground v.1.15,2013-03-11 12:26:00,
2013-03-11 08:32:00,35.7,34.7,30.23,SSE,163,0.0,0.0,96,0.00,,,0.00,53,Wunderground v.1.15,2013-03-11 12:32:00,
2013-03-11 08:38:00,36.2,35.4,30.23,SSE,163,0.0,0.0,97,0.00,,,0.00,60,Wunderground v.1.15,2013-03-11 12:38:00,
2013-03-11 08:44:00,37.1,36.3,30.23,SSE,163,0.0,0.0,97,0.00,,,0.00,137,Wunderground v.1.15,2013-03-11 12:44:00,
2013-03-11 08:50:00,37.7,36.9,30.23,SSE,163,0.0,0.0,97,0.00,,,0.00,149,Wunderground v.1.15,2013-03-11 12:50:00,
2013-03-11 08:56:00,38.7,37.9,30.23,SSE,163,0.0,0.0,97,0.00,,,0.00,139,Wunderground v.1.15,2013-03-11 12:56:00,
2013-03-11 09:02:00,40.2,39.4,30.23,SSE,163,0.0,0.0,97,0.00,,,0.00,114,Wunderground v.1.15,2013-03-11 13:02:00,
2013-03-11 09:08:00,41.5,40.7,30.23,SSE,163,0.0,1.0,97,0.00,,,0.00,107,Wunderground v.1.15,2013-03-11 13:08:00,
2013-03-11 09:14:00,42.5,41.7,30.23,SSE,165,0.0,2.0,97,0.00,,,0.00,193,Wunderground v.1.15,2013-03-11 13:14:00,
2013-03-11 09:20:00,43.5,42.7,30.23,South,176,1.0,1.0,97,0.00,,,0.00,287,Wunderground v.1.15,2013-03-11 13:20:00,
2013-03-11 09:26:00,44.5,44.0,30.23,SSW,192,1.0,2.0,98,0.00,,,0.00,151,Wunderground v.1.15,2013-03-11 13:26:00,
2013-03-11 09:32:00,45.1,44.6,30.23,SSW,192,1.0,1.0,98,0.00,,,0.00,225,Wunderground v.1.15,2013-03-11 13:32:00,
2013-03-11 09:38:00,45.5,44.7,30.23,SSW,192,1.0,1.0,97,0.00,,,0.00,295,Wunderground v.1.15,2013-03-11 13:38:00,
2013-03-11 09:44:00,45.9,45.1,30.22,SSW,192,0.0,1.0,97,0.00,,,0.00,383,Wunderground v.1.15,2013-03-11 13:44:00,
2013-03-11 09:50:00,46.6,45.8,30.22,SSW,193,1.0,1.0,97,0.00,,,0.00,387,Wunderground v.1.15,2013-03-11 13:50:00,
2013-03-11 09:56:00,46.8,46.0,30.21,South,187,2.0,4.0,97,0.00,,,0.00,381,Wunderground v.1.15,2013-03-11 13:56:00,
2013-03-11 10:02:00,47.0,46.2,30.21,SSW,200,3.0,4.0,97,0.00,,,0.00,369,Wunderground v.1.15,2013-03-11 14:02:00,
2013-03-11 10:08:00,47.2,46.4,30.22,South,190,2.0,4.0,97,0.00,,,0.00,295,Wunderground v.1.15,2013-03-11 14:08:00,
2013-03-11 10:14:00,47.5,46.7,30.22,SSW,195,2.0,5.0,97,0.00,,,0.00,360,Wunderground v.1.15,2013-03-11 14:14:00,
2013-03-11 10:20:00,48.0,47.2,30.22,SSW,192,3.0,3.0,97,0.00,,,0.00,339,Wunderground v.1.15,2013-03-11 14:20:00,
2013-03-11 10:28:00,48.6,47.8,30.22,South,187,2.0,3.0,97,0.00,,,0.00,413,Wunderground v.1.15,2013-03-11 14:28:00,
2013-03-11 10:36:00,49.3,48.5,30.22,South,186,2.0,3.0,97,0.00,,,0.00,478,Wunderground v.1.15,2013-03-11 14:36:00,
2013-03-11 10:42:00,49.9,49.1,30.22,South,191,2.0,2.0,97,0.00,,,0.00,497,Wunderground v.1.15,2013-03-11 14:42:00,
2013-03-11 10:48:00,50.4,49.3,30.22,SW,215,3.0,4.0,96,0.00,,,0.00,466,Wunderground v.1.15,2013-03-11 14:48:00,
2013-03-11 10:54:00,50.9,49.8,30.22,SSW,205,3.0,6.0,96,0.00,,,0.00,454,Wunderground v.1.15,2013-03-11 14:54:00,
2013-03-11 11:00:00,51.3,49.6,30.22,SSW,200,4.0,4.0,94,0.00,,,0.00,441,Wunderground v.1.15,2013-03-11 15:00:00,
2013-03-11 11:06:00,51.9,49.9,30.22,SSW,205,4.0,7.0,93,0.00,,,0.00,494,Wunderground v.1.15,2013-03-11 15:06:00,
2013-03-11 11:12:00,52.3,49.5,30.21,South,173,4.0,5.0,90,0.00,,,0.00,418,Wunderground v.1.15,2013-03-11 15:12:00,
2013-03-11 11:18:00,52.6,49.1,30.21,SSW,207,3.0,5.0,88,0.00,,,0.00,519,Wunderground v.1.15,2013-03-11 15:18:00,
2013-03-11 11:24:00,53.1,49.0,30.21,SSW,200,3.0,7.0,86,0.00,,,0.00,541,Wunderground v.1.15,2013-03-11 15:24:00,
2013-03-11 11:30:00,53.6,48.9,30.21,SSW,201,4.0,4.0,84,0.00,,,0.00,496,Wunderground v.1.15,2013-03-11 15:30:00,
2013-03-11 11:38:00,54.0,48.6,30.21,South,184,4.0,4.0,82,0.00,,,0.00,471,Wunderground v.1.15,2013-03-11 15:38:00,
2013-03-11 11:44:00,54.2,48.5,30.21,SSW,209,4.0,5.0,81,0.00,,,0.00,538,Wunderground v.1.15,2013-03-11 15:44:00,
2013-03-11 11:50:00,54.4,48.7,30.20,South,179,4.0,4.0,81,0.00,,,0.00,529,Wunderground v.1.15,2013-03-11 15:50:00,
2013-03-11 11:56:00,54.5,48.5,30.20,SSW,208,4.0,5.0,80,0.00,,,0.00,519,Wunderground v.1.15,2013-03-11 15:56:00,
2013-03-11 12:02:00,54.9,48.8,30.20,SE,144,4.0,6.0,80,0.00,,,0.00,506,Wunderground v.1.15,2013-03-11 16:02:00,
2013-03-11 12:08:00,55.0,48.6,30.19,South,176,4.0,9.0,79,0.00,,,0.00,508,Wunderground v.1.15,2013-03-11 16:08:00,
2013-03-11 12:14:00,55.3,48.9,30.19,SW,219,5.0,9.0,79,0.00,,,0.00,550,Wunderground v.1.15,2013-03-11 16:14:00,
2013-03-11 12:20:00,55.8,49.4,30.19,SW,215,4.0,4.0,79,0.00,,,0.00,557,Wunderground v.1.15,2013-03-11 16:20:00,
2013-03-11 12:26:00,56.0,48.9,30.19,South,188,5.0,6.0,77,0.00,,,0.00,533,Wunderground v.1.15,2013-03-11 16:26:00,
2013-03-11 12:32:00,56.1,49.0,30.19,SSW,207,5.0,6.0,77,0.00,,,0.00,541,Wunderground v.1.15,2013-03-11 16:32:00,
2013-03-11 12:38:00,56.2,49.1,30.19,SSW,202,5.0,9.0,77,0.00,,,0.00,519,Wunderground v.1.15,2013-03-11 16:38:00,
2013-03-11 12:44:00,56.2,49.1,30.19,South,178,5.0,8.0,77,0.00,,,0.00,499,Wunderground v.1.15,2013-03-11 16:44:00,
2013-03-11 12:50:00,56.2,48.7,30.18,SSW,196,5.0,5.0,76,0.00,,,0.00,504,Wunderground v.1.15,2013-03-11 16:50:00,
2013-03-11 12:58:00,56.7,49.6,30.18,South,189,3.0,6.0,77,0.00,,,0.00,485,Wunderground v.1.15,2013-03-11 16:58:00,
2013-03-11 13:04:00,56.9,49.1,30.18,SSW,209,4.0,5.0,75,0.00,,,0.00,454,Wunderground v.1.15,2013-03-11 17:04:00,
2013-03-11 13:10:00,57.0,49.2,30.18,SSW,198,4.0,6.0,75,0.00,,,0.00,536,Wunderground v.1.15,2013-03-11 17:10:00,
2013-03-11 13:16:00,57.1,49.6,30.18,South,183,4.0,6.0,76,0.00,,,0.00,501,Wunderground v.1.15,2013-03-11 17:16:00,
2013-03-11 13:22:00,57.0,49.5,30.18,SSW,194,5.0,6.0,76,0.00,,,0.00,492,Wunderground v.1.15,2013-03-11 17:22:00,
2013-03-11 13:28:00,56.8,49.3,30.18,South,179,5.0,7.0,76,0.00,,,0.00,461,Wunderground v.1.15,2013-03-11 17:28:00,
2013-03-11 13:34:00,56.7,49.2,30.18,SW,222,6.0,12.0,76,0.00,,,0.00,390,Wunderground v.1.15,2013-03-11 17:34:00,
2013-03-11 13:40:00,56.4,48.9,30.17,SSW,207,6.0,6.0,76,0.00,,,0.00,374,Wunderground v.1.15,2013-03-11 17:40:00,
2013-03-11 13:46:00,56.3,48.8,30.17,SSE,163,6.0,7.0,76,0.00,,,0.00,380,Wunderground v.1.15,2013-03-11 17:46:00,
2013-03-11 13:52:00,56.6,49.1,30.17,South,175,4.0,5.0,76,0.00,,,0.00,415,Wunderground v.1.15,2013-03-11 17:52:00,
2013-03-11 13:58:00,57.0,49.9,30.16,SSW,203,3.0,6.0,77,0.00,,,0.00,406,Wunderground v.1.15,2013-03-11 17:58:00,
2013-03-11 14:04:00,57.1,49.6,30.16,SSW,200,4.0,5.0,76,0.00,,,0.00,399,Wunderground v.1.15,2013-03-11 18:04:00,
2013-03-11 14:10:00,57.2,49.7,30.16,South,186,4.0,4.0,76,0.00,,,0.00,439,Wunderground v.1.15,2013-03-11 18:10:00,
2013-03-11 14:16:00,57.4,49.5,30.15,South,188,3.0,9.0,75,0.00,,,0.00,366,Wunderground v.1.15,2013-03-11 18:16:00,
2013-03-11 14:22:00,57.5,49.6,30.15,South,186,4.0,5.0,75,0.00,,,0.00,346,Wunderground v.1.15,2013-03-11 18:22:00,
2013-03-11 14:28:00,57.6,49.7,30.14,SSW,213,4.0,7.0,75,0.00,,,0.00,346,Wunderground v.1.15,2013-03-11 18:28:00,
2013-03-11 14:34:00,57.6,49.7,30.14,South,188,4.0,6.0,75,0.00,,,0.00,325,Wunderground v.1.15,2013-03-11 18:34:00,
2013-03-11 14:40:00,57.7,49.8,30.14,SSW,197,4.0,6.0,75,0.00,,,0.00,327,Wunderground v.1.15,2013-03-11 18:40:00,
2013-03-11 14:46:00,57.6,50.1,30.14,South,183,4.0,7.0,76,0.00,,,0.00,320,Wunderground v.1.15,2013-03-11 18:46:00,
2013-03-11 14:52:00,57.7,50.5,30.13,SSE,161,4.0,10.0,77,0.00,,,0.00,350,Wunderground v.1.15,2013-03-11 18:52:00,
2013-03-11 14:58:00,57.6,50.1,30.14,SSW,213,4.0,10.0,76,0.00,,,0.00,295,Wunderground v.1.15,2013-03-11 18:58:00,
2013-03-11 15:04:00,57.4,50.2,30.14,SSW,192,4.0,7.0,77,0.00,,,0.00,265,Wunderground v.1.15,2013-03-11 19:04:00,
2013-03-11 15:10:00,57.3,50.1,30.13,SSW,200,4.0,10.0,77,0.00,,,0.00,253,Wunderground v.1.15,2013-03-11 19:10:00,
2013-03-11 15:16:00,56.9,50.1,30.13,SSW,209,5.0,10.0,78,0.00,,,0.00,299,Wunderground v.1.15,2013-03-11 19:16:00,
2013-03-11 15:22:00,57.0,50.2,30.13,SW,214,5.0,5.0,78,0.00,,,0.00,352,Wunderground v.1.15,2013-03-11 19:22:00,
2013-03-11 15:28:00,57.2,50.1,30.13,SW,216,5.0,11.0,77,0.00,,,0.00,359,Wunderground v.1.15,2013-03-11 19:28:00,
2013-03-11 15:34:00,57.5,50.3,30.13,SW,221,6.0,7.0,77,0.00,,,0.00,301,Wunderground v.1.15,2013-03-11 19:34:00,
2013-03-11 15:40:00,57.5,50.3,30.12,SSW,197,5.0,6.0,77,0.00,,,0.00,241,Wunderground v.1.15,2013-03-11 19:40:00,
2013-03-11 15:46:00,57.2,50.1,30.12,South,186,6.0,6.0,77,0.00,,,0.00,258,Wunderground v.1.15,2013-03-11 19:46:00,
2013-03-11 15:52:00,56.9,50.1,30.12,SSW,193,6.0,7.0,78,0.00,,,0.00,248,Wunderground v.1.15,2013-03-11 19:52:00,
2013-03-11 15:58:00,56.9,50.1,30.12,SSE,150,5.0,7.0,78,0.00,,,0.00,244,Wunderground v.1.15,2013-03-11 19:58:00,
2013-03-11 16:04:00,56.7,49.9,30.12,SSW,196,4.0,8.0,78,0.00,,,0.00,234,Wunderground v.1.15,2013-03-11 20:04:00,
2013-03-11 16:10:00,56.7,49.9,30.12,SSW,194,4.0,5.0,78,0.00,,,0.00,274,Wunderground v.1.15,2013-03-11 20:10:00,
2013-03-11 16:18:00,57.0,50.5,30.12,SSW,207,4.0,9.0,79,0.00,,,0.00,309,Wunderground v.1.15,2013-03-11 20:18:00,
2013-03-11 16:24:00,57.0,50.5,30.12,SW,221,5.0,7.0,79,0.00,,,0.00,272,Wunderground v.1.15,2013-03-11 20:24:00,
2013-03-11 16:30:00,57.1,50.6,30.11,SW,216,5.0,5.0,79,0.00,,,0.00,267,Wunderground v.1.15,2013-03-11 20:30:00,
2013-03-11 16:38:00,57.0,50.9,30.11,SSW,201,6.0,7.0,80,0.00,,,0.00,214,Wunderground v.1.15,2013-03-11 20:38:00,
2013-03-11 16:44:00,56.8,50.7,30.11,SSW,201,6.0,8.0,80,0.00,,,0.00,169,Wunderground v.1.15,2013-03-11 20:44:00,
2013-03-11 16:50:00,56.6,50.8,30.10,SSW,200,5.0,5.0,81,0.00,,,0.00,162,Wunderground v.1.15,2013-03-11 20:50:00,
2013-03-11 16:56:00,56.4,51.0,30.11,South,190,5.0,7.0,82,0.00,,,0.00,171,Wunderground v.1.15,2013-03-11 20:56:00,
2013-03-11 17:02:00,56.1,50.7,30.11,SW,221,6.0,9.0,82,0.00,,,0.00,156,Wunderground v.1.15,2013-03-11 21:02:00,
2013-03-11 17:08:00,55.8,50.7,30.10,SSW,200,6.0,9.0,83,0.00,,,0.00,153,Wunderground v.1.15,2013-03-11 21:08:00,
2013-03-11 17:14:00,55.5,50.4,30.10,SSW,206,6.0,10.0,83,0.00,,,0.00,144,Wunderground v.1.15,2013-03-11 21:14:00,
2013-03-11 17:20:00,55.3,50.5,30.10,South,180,6.0,9.0,84,0.00,,,0.00,132,Wunderground v.1.15,2013-03-11 21:20:00,
2013-03-11 17:26:00,55.0,50.6,30.10,SSW,192,7.0,10.0,85,0.00,,,0.00,118,Wunderground v.1.15,2013-03-11 21:26:00,
2013-03-11 17:32:00,54.7,50.3,30.10,SSW,204,7.0,8.0,85,0.00,,,0.00,102,Wunderground v.1.15,2013-03-11 21:32:00,
2013-03-11 17:38:00,54.4,50.3,30.10,SSW,201,7.0,8.0,86,0.00,,,0.00,90,Wunderground v.1.15,2013-03-11 21:38:00,
2013-03-11 17:44:00,54.2,50.1,30.09,SSW,200,6.0,7.0,86,0.00,,,0.00,81,Wunderground v.1.15,2013-03-11 21:44:00,
2013-03-11 17:50:00,54.1,50.3,30.09,South,182,4.0,4.0,87,0.00,,,0.00,83,Wunderground v.1.15,2013-03-11 21:50:00,
2013-03-11 17:56:00,54.0,50.2,30.09,South,185,4.0,5.0,87,0.00,,,0.00,76,Wunderground v.1.15,2013-03-11 21:56:00,
2013-03-11 18:02:00,53.8,50.0,30.09,South,182,4.0,6.0,87,0.00,,,0.00,60,Wunderground v.1.15,2013-03-11 22:02:00,
2013-03-11 18:08:00,53.6,49.8,30.08,South,185,4.0,7.0,87,0.00,,,0.00,51,Wunderground v.1.15,2013-03-11 22:08:00,
2013-03-11 18:14:00,53.3,49.8,30.08,SSW,196,4.0,7.0,88,0.00,,,0.00,46,Wunderground v.1.15,2013-03-11 22:14:00,
2013-03-11 18:20:00,53.0,49.5,30.09,South,190,5.0,5.0,88,0.00,,,0.00,39,Wunderground v.1.15,2013-03-11 22:20:00,
2013-03-11 18:26:00,52.7,49.5,30.08,SSW,192,6.0,6.0,89,0.00,,,0.00,33,Wunderground v.1.15,2013-03-11 22:26:00,
2013-03-11 18:32:00,52.5,49.4,30.09,SSW,209,6.0,6.0,89,0.00,,,0.00,30,Wunderground v.1.15,2013-03-11 22:32:00,
2013-03-11 18:38:00,52.3,49.5,30.09,SSW,192,5.0,7.0,90,0.00,,,0.00,25,Wunderground v.1.15,2013-03-11 22:38:00,
2013-03-11 18:44:00,52.1,49.3,30.08,South,178,4.0,5.0,90,0.00,,,0.00,16,Wunderground v.1.15,2013-03-11 22:44:00,
2013-03-11 18:50:00,51.9,49.1,30.08,SSW,203,4.0,6.0,90,0.00,,,0.00,9,Wunderground v.1.15,2013-03-11 22:50:00,
2013-03-11 18:56:00,51.7,48.9,30.08,SW,234,5.0,6.0,90,0.00,,,0.00,5,Wunderground v.1.15,2013-03-11 22:56:00,
2013-03-11 19:02:00,51.5,49.0,30.08,SW,232,5.0,6.0,91,0.00,,,0.00,0,Wunderground v.1.15,2013-03-11 23:02:00,
2013-03-11 19:08:00,51.3,48.8,30.08,SSW,198,4.0,6.0,91,0.00,,,0.00,0,Wunderground v.1.15,2013-03-11 23:08:00,
2013-03-11 19:14:00,51.2,48.7,30.09,South,190,5.0,8.0,91,0.00,,,0.00,0,Wunderground v.1.15,2013-03-11 23:14:00,
2013-03-11 19:20:00,51.1,48.6,30.09,South,191,5.0,5.0,91,0.00,,,0.00,0,Wunderground v.1.15,2013-03-11 23:20:00,
2013-03-11 19:28:00,51.0,48.8,30.10,South,179,5.0,5.0,92,0.00,,,0.00,0,Wunderground v.1.15,2013-03-11 23:28:00,
2013-03-11 19:34:00,50.9,48.7,30.09,South,169,4.0,6.0,92,0.00,,,0.00,0,Wunderground v.1.15,2013-03-11 23:34:00,
2013-03-11 19:40:00,50.8,48.6,30.10,South,182,5.0,5.0,92,0.00,,,0.00,0,Wunderground v.1.15,2013-03-11 23:40:00,
2013-03-11 19:48:00,50.8,48.6,30.09,South,187,4.0,8.0,92,0.00,,,0.00,0,Wunderground v.1.15,2013-03-11 23:48:00,
2013-03-11 19:54:00,50.9,48.7,30.10,South,180,4.0,5.0,92,0.00,,,0.00,0,Wunderground v.1.15,2013-03-11 23:54:00,
2013-03-11 20:00:00,51.0,48.8,30.10,SSW,193,4.0,7.0,92,0.00,,,0.00,0,Wunderground v.1.15,2013-03-12 00:00:00,
2013-03-11 20:06:00,51.1,48.9,30.10,SSW,206,4.0,7.0,92,0.00,,,0.00,0,Wunderground v.1.15,2013-03-12 00:06:00,
2013-03-11 20:12:00,51.0,48.8,30.10,SSW,200,5.0,5.0,92,0.00,,,0.00,0,Wunderground v.1.15,2013-03-12 00:12:00,
2013-03-11 20:18:00,50.9,48.7,30.10,SSW,211,4.0,5.0,92,0.00,,,0.00,0,Wunderground v.1.15,2013-03-12 00:18:00,
2013-03-11 20:24:00,50.8,48.6,30.09,South,169,4.0,5.0,92,0.00,,,0.00,0,Wunderground v.1.15,2013-03-12 00:24:00,
2013-03-11 20:30:00,50.8,48.6,30.09,SSW,198,5.0,5.0,92,0.00,,,0.00,0,Wunderground v.1.15,2013-03-12 00:30:00,
2013-03-11 20:36:00,50.8,48.8,30.09,South,182,4.0,5.0,93,0.00,,,0.00,0,Wunderground v.1.15,2013-03-12 00:36:00,
2013-03-11 20:42:00,50.7,48.7,30.09,South,181,4.0,5.0,93,0.00,,,0.00,0,Wunderground v.1.15,2013-03-12 00:42:00,
2013-03-11 20:48:00,50.8,48.8,30.08,South,174,4.0,5.0,93,0.00,,,0.00,0,Wunderground v.1.15,2013-03-12 00:48:00,
2013-03-11 20:54:00,50.9,48.9,30.08,South,178,4.0,6.0,93,0.00,,,0.00,0,Wunderground v.1.15,2013-03-12 00:54:00,
2013-03-11 21:00:00,51.0,49.0,30.08,SSW,202,5.0,9.0,93,0.00,,,0.00,0,Wunderground v.1.15,2013-03-12 01:00:00,
2013-03-11 21:06:00,51.2,49.2,30.08,SSW,193,5.0,9.0,93,0.00,,,0.00,0,Wunderground v.1.15,2013-03-12 01:06:00,
2013-03-11 21:12:00,51.2,49.2,30.07,SSW,203,5.0,6.0,93,0.00,,,0.00,0,Wunderground v.1.15,2013-03-12 01:12:00,
2013-03-11 21:18:00,51.3,49.3,30.07,SSW,193,5.0,7.0,93,0.00,,,0.00,0,Wunderground v.1.15,2013-03-12 01:18:00,
2013-03-11 21:24:00,51.3,49.3,30.07,SSW,198,5.0,6.0,93,0.00,,,0.00,0,Wunderground v.1.15,2013-03-12 01:24:00,
2013-03-11 21:30:00,51.5,49.5,30.07,SW,215,6.0,7.0,93,0.00,,,0.00,0,Wunderground v.1.15,2013-03-12 01:30:00,
2013-03-11 21:36:00,51.6,49.4,30.07,South,181,6.0,7.0,92,0.00,,,0.00,0,Wunderground v.1.15,2013-03-12 01:36:00,
2013-03-11 21:42:00,51.7,49.5,30.07,South,181,5.0,6.0,92,0.00,,,0.00,0,Wunderground v.1.15,2013-03-12 01:42:00,
2013-03-11 21:48:00,51.7,49.5,30.07,South,180,4.0,6.0,92,0.00,,,0.00,0,Wunderground v.1.15,2013-03-12 01:48:00,
2013-03-11 21:54:00,51.7,49.2,30.07,South,188,5.0,8.0,91,0.00,,,0.00,0,Wunderground v.1.15,2013-03-12 01:54:00,
2013-03-11 22:00:00,51.7,49.2,30.06,SSW,206,6.0,6.0,91,0.00,,,0.00,0,Wunderground v.1.15,2013-03-12 02:00:00,
2013-03-11 22:08:00,51.6,48.8,30.05,South,177,5.0,6.0,90,0.00,,,0.00,0,Wunderground v.1.15,2013-03-12 02:08:00,
2013-03-11 22:14:00,51.5,48.7,30.06,SSW,194,4.0,5.0,90,0.00,,,0.00,0,Wunderground v.1.15,2013-03-12 02:14:00,
2013-03-11 22:20:00,51.5,48.7,30.06,SE,126,4.0,7.0,90,0.00,,,0.00,0,Wunderground v.1.15,2013-03-12 02:20:00,
2013-03-11 22:26:00,51.5,48.7,30.06,South,186,5.0,7.0,90,0.00,,,0.00,0,Wunderground v.1.15,2013-03-12 02:26:00,
2013-03-11 22:32:00,51.4,48.6,30.07,SW,219,6.0,6.0,90,0.00,,,0.00,0,Wunderground v.1.15,2013-03-12 02:32:00,
2013-03-11 22:38:00,51.5,48.7,30.06,SW,219,6.0,6.0,90,0.00,,,0.00,0,Wunderground v.1.15,2013-03-12 02:38:00,
2013-03-11 22:44:00,51.5,48.7,30.08,SSW,202,5.0,7.0,90,0.00,,,0.00,0,Wunderground v.1.15,2013-03-12 02:44:00,
2013-03-11 22:50:00,51.3,48.2,30.08,SSW,196,5.0,5.0,89,0.00,,,0.00,0,Wunderground v.1.15,2013-03-12 02:50:00,
2013-03-11 22:56:00,51.2,48.1,30.08,SSW,201,5.0,5.0,89,0.00,,,0.00,0,Wunderground v.1.15,2013-03-12 02:56:00,
2013-03-11 23:02:00,51.1,48.3,30.08,SSW,207,4.0,5.0,90,0.00,,,0.00,0,Wunderground v.1.15,2013-03-12 03:02:00,
2013-03-11 23:08:00,51.3,48.5,30.07,South,182,4.0,5.0,90,0.00,,,0.00,0,Wunderground v.1.15,2013-03-12 03:08:00,
2013-03-11 23:14:00,51.4,48.6,30.07,SSE,168,4.0,5.0,90,0.00,,,0.00,0,Wunderground v.1.15,2013-03-12 03:14:00,
2013-03-11 23:20:00,51.5,48.7,30.07,SSW,211,4.0,4.0,90,0.00,,,0.00,0,Wunderground v.1.15,2013-03-12 03:20:00,
2013-03-11 23:28:00,51.6,48.5,30.07,South,173,3.0,5.0,89,0.00,,,0.00,0,Wunderground v.1.15,2013-03-12 03:28:00,
2013-03-11 23:34:00,51.8,48.7,30.07,SSW,198,3.0,4.0,89,0.00,,,0.00,0,Wunderground v.1.15,2013-03-12 03:34:00,
2013-03-11 23:40:00,51.9,48.8,30.07,SSW,196,4.0,4.0,89,0.00,,,0.00,0,Wunderground v.1.15,2013-03-12 03:40:00,
2013-03-11 23:46:00,52.0,48.9,30.06,SSW,204,4.0,5.0,89,0.00,,,0.00,0,Wunderground v.1.15,2013-03-12 03:46:00,
2013-03-11 23:52:00,52.0,48.9,30.06,SSW,194,4.0,6.0,89,0.00,,,0.00,0,Wunderground v.1.15,2013-03-12 03:52:00,
2013-03-11 23:58:00,52.2,49.1,30.06,SSW,202,4.0,6.0,89,0.00,,,0.00,0,Wunderground v.1.15,2013-03-12 03:58:00,